createdAt,value
2023-02-11T00:00:19.577Z,61.20
2023-02-11T00:02:48.030Z,61.20
2023-02-11T00:05:15.304Z,61.30
2023-02-11T00:07:42.080Z,61.30
2023-02-11T00:10:09.370Z,61.40
2023-02-11T00:12:38.129Z,61.30
2023-02-11T00:15:07.651Z,61.30
2023-02-11T00:17:34.624Z,61.20
2023-02-11T00:20:01.450Z,61.10
2023-02-11T00:22:28.224Z,61.20
2023-02-11T00:24:57.021Z,61.10
2023-02-11T00:27:23.796Z,60.90
2023-02-11T00:29:51.594Z,61.00
2023-02-11T00:32:18.387Z,61.10
2023-02-11T00:34:45.101Z,61.20
2023-02-11T00:37:12.119Z,61.30
2023-02-11T00:39:41.921Z,61.20
2023-02-11T00:42:16.962Z,61.40
2023-02-11T00:44:45.221Z,61.30
2023-02-11T00:47:12.074Z,61.20
2023-02-11T00:49:40.311Z,61.30
2023-02-11T00:52:07.523Z,61.30
2023-02-11T00:54:34.887Z,61.10
2023-02-11T00:57:01.642Z,61.00
2023-02-11T00:59:28.686Z,61.10
2023-02-11T01:01:55.805Z,61.30
2023-02-11T01:04:22.838Z,61.00
2023-02-11T01:06:52.136Z,61.00
2023-02-11T01:09:21.097Z,61.10
2023-02-11T01:11:48.343Z,61.10
2023-02-11T01:14:16.073Z,61.10
2023-02-11T01:16:43.364Z,61.10
2023-02-11T01:19:10.573Z,61.00
2023-02-11T01:21:37.325Z,60.90
2023-02-11T01:24:04.242Z,60.90
2023-02-11T01:26:30.990Z,60.90
2023-02-11T01:29:00.719Z,61.00
2023-02-11T01:31:27.903Z,61.00
2023-02-11T01:33:54.653Z,61.00
2023-02-11T01:36:21.361Z,61.00
2023-02-11T01:38:49.855Z,61.00
2023-02-11T01:41:16.768Z,60.90
2023-02-11T01:43:46.478Z,61.00
2023-02-11T01:46:28.309Z,61.10
2023-02-11T01:49:04.597Z,60.90
2023-02-11T01:51:39.776Z,60.90
2023-02-11T01:54:27.384Z,61.00
2023-02-11T01:57:16.272Z,61.00
2023-02-11T02:00:05.288Z,61.10
2023-02-11T02:03:07.829Z,61.20
2023-02-11T02:05:59.657Z,61.30
2023-02-11T02:08:35.526Z,61.70
2023-02-11T02:11:03.680Z,61.80
2023-02-11T02:13:33.216Z,61.90
2023-02-11T02:16:11.532Z,61.80
2023-02-11T02:19:03.907Z,61.90
2023-02-11T02:22:18.180Z,62.00
2023-02-11T02:25:00.889Z,62.00
2023-02-11T02:27:46.876Z,61.70
2023-02-11T02:30:26.121Z,62.40
2023-02-11T02:32:57.921Z,61.40
2023-02-11T02:36:09.447Z,61.20
2023-02-11T02:38:55.541Z,61.40
2023-02-11T02:41:32.416Z,61.30
2023-02-11T02:43:59.359Z,61.60
2023-02-11T02:46:30.053Z,61.80
2023-02-11T02:48:57.761Z,62.10
2023-02-11T02:51:47.795Z,62.20
2023-02-11T02:54:45.698Z,62.30
2023-02-11T02:57:36.336Z,62.30
2023-02-11T03:00:29.738Z,62.20
2023-02-11T03:03:26.073Z,62.00
2023-02-11T03:06:21.057Z,61.90
2023-02-11T03:09:11.834Z,61.90
2023-02-11T03:11:39.914Z,61.80
2023-02-11T03:14:10.408Z,62.00
2023-02-11T03:16:39.238Z,62.00
2023-02-11T03:19:12.553Z,62.10
2023-02-11T03:21:41.615Z,62.20
2023-02-11T03:24:14.527Z,62.40
2023-02-11T03:26:49.048Z,62.50
2023-02-11T03:29:26.182Z,62.70
2023-02-11T03:32:17.646Z,62.80
2023-02-11T03:35:06.486Z,63.10
2023-02-11T03:37:36.240Z,62.90
2023-02-11T03:40:18.942Z,63.00
2023-02-11T03:42:53.380Z,63.00
2023-02-11T03:45:23.328Z,63.00
2023-02-11T03:47:59.950Z,63.10
2023-02-11T03:50:27.953Z,63.20
2023-02-11T03:52:57.160Z,63.40
2023-02-11T03:55:26.018Z,63.40
2023-02-11T03:57:52.781Z,63.30
2023-02-11T04:00:19.557Z,63.40
2023-02-11T04:02:46.426Z,63.20
2023-02-11T04:05:16.171Z,63.30
2023-02-11T04:07:42.980Z,63.20
2023-02-11T04:10:11.393Z,63.30
2023-02-11T04:12:38.254Z,63.50
2023-02-11T04:15:05.668Z,63.70
2023-02-11T04:17:32.361Z,63.60
2023-02-11T04:19:59.131Z,63.40
2023-02-11T04:22:25.933Z,63.20
2023-02-11T04:24:52.663Z,63.20
2023-02-11T04:27:19.442Z,63.10
2023-02-11T04:29:46.184Z,62.90
2023-02-11T04:32:13.147Z,62.80
2023-02-11T04:34:40.029Z,62.70
2023-02-11T04:37:07.268Z,62.70
2023-02-11T04:39:34.646Z,62.80
2023-02-11T04:42:01.522Z,62.90
2023-02-11T04:44:28.483Z,62.70
2023-02-11T04:46:55.169Z,62.50
2023-02-11T04:49:22.059Z,62.50
2023-02-11T04:51:49.637Z,62.60
2023-02-11T04:54:16.874Z,62.80
2023-02-11T04:56:43.835Z,62.80
2023-02-11T04:59:11.477Z,62.70
2023-02-11T05:01:38.285Z,62.80
2023-02-11T05:04:05.204Z,63.00
2023-02-11T05:06:32.166Z,62.90
2023-02-11T05:08:58.906Z,62.60
2023-02-11T05:11:26.176Z,62.50
2023-02-11T05:13:53.421Z,62.50
2023-02-11T05:16:20.717Z,62.40
2023-02-11T05:18:47.630Z,62.30
2023-02-11T05:21:17.501Z,62.20
2023-02-11T05:23:45.294Z,62.20
2023-02-11T05:26:12.810Z,62.10
2023-02-11T05:28:40.286Z,62.20
2023-02-11T05:31:07.525Z,62.40
2023-02-11T05:33:34.481Z,62.60
2023-02-11T05:36:08.272Z,62.70
2023-02-11T05:38:35.814Z,62.90
2023-02-11T05:41:03.108Z,62.80
2023-02-11T05:43:29.885Z,62.90
2023-02-11T05:45:57.088Z,62.80
2023-02-11T05:48:24.092Z,62.80
2023-02-11T05:50:50.829Z,62.80
2023-02-11T05:53:17.690Z,62.70
2023-02-11T05:55:44.722Z,62.90
2023-02-11T05:58:11.498Z,62.70
2023-02-11T06:00:38.309Z,62.60
2023-02-11T06:03:05.612Z,62.50
2023-02-11T06:05:32.615Z,62.70
2023-02-11T06:07:59.721Z,62.70
2023-02-11T06:10:26.825Z,62.70
2023-02-11T06:12:53.585Z,62.70
2023-02-11T06:15:20.455Z,62.60
2023-02-11T06:17:47.209Z,62.50
2023-02-11T06:20:14.132Z,62.50
2023-02-11T06:22:40.970Z,62.70
2023-02-11T06:25:07.837Z,62.70
2023-02-11T06:27:34.553Z,62.90
2023-02-11T06:30:01.309Z,63.00
2023-02-11T06:32:43.870Z,63.10
2023-02-11T06:35:12.312Z,63.00
2023-02-11T06:37:39.926Z,62.90
2023-02-11T06:40:07.069Z,62.90
2023-02-11T06:42:34.566Z,62.90
2023-02-11T06:45:01.371Z,63.00
2023-02-11T06:47:28.185Z,63.10
2023-02-11T06:49:54.901Z,63.20
2023-02-11T06:52:21.721Z,63.10
2023-02-11T06:54:48.420Z,63.00
2023-02-11T06:57:15.150Z,63.50
2023-02-11T06:59:41.986Z,62.80
2023-02-11T07:02:11.847Z,62.80
2023-02-11T07:04:38.615Z,62.70
2023-02-11T07:07:05.392Z,63.40
2023-02-11T07:09:32.345Z,62.60
2023-02-11T07:11:59.068Z,62.60
2023-02-11T07:14:25.826Z,62.70
2023-02-11T07:16:52.634Z,62.70
2023-02-11T07:19:19.369Z,62.90
2023-02-11T07:21:46.103Z,63.00
2023-02-11T07:24:13.287Z,63.10
2023-02-11T07:26:40.339Z,63.10
2023-02-11T07:29:07.272Z,63.80
2023-02-11T07:31:34.171Z,62.90
2023-02-11T07:34:02.385Z,62.80
2023-02-11T07:36:31.751Z,62.50
2023-02-11T07:38:59.988Z,62.40
2023-02-11T07:41:27.273Z,62.40
2023-02-11T07:43:54.742Z,62.20
2023-02-11T07:46:24.364Z,62.20
2023-02-11T07:48:51.577Z,62.30
2023-02-11T07:51:27.379Z,62.30
2023-02-11T07:53:55.392Z,62.40
2023-02-11T07:56:22.990Z,62.20
2023-02-11T07:58:50.417Z,62.30
2023-02-11T08:01:24.908Z,62.30
2023-02-11T08:03:52.681Z,62.30
2023-02-11T08:06:21.321Z,62.20
2023-02-11T08:08:48.946Z,62.10
2023-02-11T08:11:22.513Z,62.00
2023-02-11T08:13:49.277Z,61.90
2023-02-11T08:16:22.213Z,61.80
2023-02-11T08:18:49.841Z,61.70
2023-02-11T08:21:17.411Z,61.70
2023-02-11T08:23:44.797Z,61.70
2023-02-11T08:26:17.507Z,61.60
2023-02-11T08:28:46.298Z,61.60
2023-02-11T08:31:16.029Z,61.50
2023-02-11T08:33:43.119Z,61.60
2023-02-11T08:36:15.730Z,61.80
2023-02-11T08:38:43.073Z,61.90
2023-02-11T08:41:09.881Z,61.70
2023-02-11T08:43:37.485Z,61.60
2023-02-11T08:46:05.649Z,61.50
2023-02-11T08:48:32.631Z,61.40
2023-02-11T08:50:59.901Z,61.50
2023-02-11T08:53:26.869Z,61.60
2023-02-11T08:55:55.368Z,61.50
2023-02-11T08:58:22.798Z,61.60
2023-02-11T09:00:50.395Z,61.50
2023-02-11T09:03:17.916Z,61.50
2023-02-11T09:05:46.981Z,61.50
2023-02-11T09:08:17.274Z,61.60
2023-02-11T09:10:44.185Z,61.50
2023-02-11T09:13:11.337Z,61.40
2023-02-11T09:15:38.085Z,61.40
2023-02-11T09:18:05.835Z,61.30
2023-02-11T09:20:32.680Z,61.20
2023-02-11T09:22:59.909Z,61.00
2023-02-11T09:25:26.851Z,60.70
2023-02-11T09:27:53.826Z,60.40
2023-02-11T09:30:20.966Z,60.20
2023-02-11T09:32:47.989Z,60.30
2023-02-11T09:35:14.789Z,60.20
2023-02-11T09:37:41.589Z,60.40
2023-02-11T09:40:09.139Z,60.30
2023-02-11T09:43:02.346Z,60.40
2023-02-11T09:45:31.739Z,60.30
2023-02-11T09:48:05.827Z,60.20
2023-02-11T09:50:36.643Z,60.20
2023-02-11T09:53:27.213Z,60.10
2023-02-11T09:56:00.952Z,60.10
2023-02-11T09:58:32.320Z,60.00
2023-02-11T10:01:13.781Z,59.90
2023-02-11T10:04:02.360Z,60.10
2023-02-11T10:06:36.631Z,59.60
2023-02-11T10:09:20.830Z,59.40
2023-02-11T10:12:25.458Z,59.50
2023-02-11T10:15:20.380Z,59.40
2023-02-11T10:18:01.007Z,59.30
2023-02-11T10:20:47.954Z,59.10
2023-02-11T10:23:31.016Z,58.60
2023-02-11T10:25:58.929Z,58.60
2023-02-11T10:28:34.843Z,58.00
2023-02-11T10:31:21.472Z,58.00
2023-02-11T10:33:59.031Z,57.60
2023-02-11T10:36:31.172Z,57.20
2023-02-11T10:39:22.616Z,56.40
2023-02-11T10:42:18.769Z,55.80
2023-02-11T10:45:02.338Z,55.90
2023-02-11T10:47:36.810Z,55.70
2023-02-11T10:50:22.899Z,55.50
2023-02-11T10:52:49.785Z,56.00
2023-02-11T10:55:26.012Z,55.90
2023-02-11T10:57:56.722Z,56.00
2023-02-11T11:00:39.025Z,56.00
2023-02-11T11:03:21.648Z,55.70
2023-02-11T11:05:57.295Z,55.70
2023-02-11T11:08:48.596Z,55.50
2023-02-11T11:11:20.879Z,55.60
2023-02-11T11:13:53.808Z,55.30
2023-02-11T11:16:23.997Z,55.00
2023-02-11T11:18:53.555Z,55.10
2023-02-11T11:21:28.797Z,54.80
2023-02-11T11:23:59.187Z,54.60
2023-02-11T11:26:29.513Z,54.20
2023-02-11T11:29:02.354Z,54.20
2023-02-11T11:31:35.641Z,54.20
2023-02-11T11:34:20.777Z,53.70
2023-02-11T11:36:48.144Z,53.50
2023-02-11T11:39:22.788Z,53.00
2023-02-11T11:41:52.650Z,53.10
2023-02-11T11:44:29.176Z,53.30
2023-02-11T11:47:12.749Z,53.70
2023-02-11T11:50:03.393Z,54.50
2023-02-11T11:52:36.526Z,53.40
2023-02-11T11:55:17.025Z,52.60
2023-02-11T11:57:44.070Z,52.30
2023-02-11T12:00:17.464Z,52.10
2023-02-11T12:03:06.028Z,51.50
2023-02-11T12:05:45.132Z,51.90
2023-02-11T12:08:41.384Z,52.00
2023-02-11T12:11:29.976Z,52.60
2023-02-11T12:14:06.180Z,52.20
2023-02-11T12:16:36.004Z,52.00
2023-02-11T12:19:33.861Z,51.30
2023-02-11T12:22:10.968Z,52.00
2023-02-11T12:25:15.336Z,51.90
2023-02-11T12:28:20.087Z,52.90
2023-02-11T12:31:13.109Z,53.30
2023-02-11T12:34:14.080Z,53.10
2023-02-11T12:37:07.902Z,52.10
2023-02-11T12:39:45.418Z,51.30
2023-02-11T12:42:56.230Z,51.90
2023-02-11T12:46:04.427Z,52.00
2023-02-11T12:48:52.777Z,52.10
2023-02-11T12:51:40.871Z,51.90
2023-02-11T12:54:10.976Z,51.40
2023-02-11T12:57:02.369Z,51.60
2023-02-11T12:59:29.054Z,51.30
2023-02-11T13:01:56.970Z,51.20
2023-02-11T13:04:35.414Z,51.20
2023-02-11T13:07:37.253Z,51.80
2023-02-11T13:10:21.548Z,50.90
2023-02-11T13:13:10.217Z,50.20
2023-02-11T13:15:37.436Z,50.00
2023-02-11T13:18:36.988Z,50.30
2023-02-11T13:21:16.324Z,50.70
2023-02-11T13:24:07.944Z,51.10
2023-02-11T13:26:46.438Z,51.10
2023-02-11T13:29:34.044Z,51.10
2023-02-11T13:32:08.942Z,50.90
2023-02-11T13:34:42.014Z,50.80
2023-02-11T13:37:26.858Z,50.00
2023-02-11T13:40:01.199Z,50.30
2023-02-11T13:42:29.753Z,50.10
2023-02-11T13:44:57.142Z,49.70
2023-02-11T13:47:31.270Z,49.20
2023-02-11T13:50:00.002Z,48.80
2023-02-11T13:52:31.639Z,48.60
2023-02-11T13:55:21.925Z,48.50
2023-02-11T13:58:07.085Z,48.50
2023-02-11T14:00:33.775Z,48.70
2023-02-11T14:03:31.146Z,48.40
2023-02-11T14:06:28.720Z,48.80
2023-02-11T14:09:13.552Z,49.10
2023-02-11T14:11:40.811Z,48.80
2023-02-11T14:14:23.835Z,48.60
2023-02-11T14:17:02.373Z,49.10
2023-02-11T14:19:37.423Z,49.10
2023-02-11T14:22:06.261Z,49.20
2023-02-11T14:24:33.000Z,49.40
2023-02-11T14:27:20.750Z,49.70
2023-02-11T14:29:56.223Z,50.00
2023-02-11T14:32:42.648Z,50.00
2023-02-11T14:35:28.312Z,50.10
2023-02-11T14:38:07.428Z,49.80
2023-02-11T14:41:02.202Z,49.80
2023-02-11T14:43:36.017Z,50.40
2023-02-11T14:46:03.317Z,51.50
2023-02-11T14:48:39.005Z,51.10
2023-02-11T14:51:12.582Z,51.00
2023-02-11T14:53:45.137Z,51.10
2023-02-11T14:56:31.601Z,51.20
2023-02-11T14:58:58.945Z,51.40
2023-02-11T15:01:40.520Z,51.40
2023-02-11T15:04:24.214Z,51.60
2023-02-11T15:06:51.388Z,51.80
2023-02-11T15:09:25.617Z,51.90
2023-02-11T15:11:53.259Z,51.80
2023-02-11T15:14:25.509Z,51.70
2023-02-11T15:16:54.742Z,52.00
2023-02-11T15:19:26.723Z,52.10
2023-02-11T15:21:54.083Z,52.10
2023-02-11T15:24:24.338Z,52.00
2023-02-11T15:27:20.926Z,52.30
2023-02-11T15:29:50.582Z,52.50
2023-02-11T15:32:18.606Z,52.60
2023-02-11T15:34:47.244Z,52.60
2023-02-11T15:37:23.077Z,53.00
2023-02-11T15:39:49.832Z,53.20
2023-02-11T15:42:20.612Z,53.20
2023-02-11T15:44:54.293Z,53.30
2023-02-11T15:47:29.468Z,53.60
2023-02-11T15:49:56.237Z,53.80
2023-02-11T15:52:26.497Z,53.90
2023-02-11T15:54:56.005Z,54.10
2023-02-11T15:57:23.172Z,54.30
2023-02-11T15:59:53.460Z,54.30
2023-02-11T16:02:31.013Z,54.40
2023-02-11T16:05:00.712Z,54.40
2023-02-11T16:07:50.387Z,54.40
2023-02-11T16:10:19.960Z,54.50
2023-02-11T16:12:53.999Z,54.70
2023-02-11T16:15:42.179Z,55.00
2023-02-11T16:18:21.983Z,55.20
2023-02-11T16:20:51.894Z,55.20
2023-02-11T16:23:38.409Z,55.40
2023-02-11T16:26:22.252Z,55.60
2023-02-11T16:28:49.391Z,55.60
2023-02-11T16:31:16.468Z,55.60
2023-02-11T16:33:43.300Z,56.00
2023-02-11T16:36:14.676Z,56.10
2023-02-11T16:38:41.425Z,56.20
2023-02-11T16:41:11.687Z,56.10
2023-02-11T16:43:39.866Z,56.20
2023-02-11T16:46:06.767Z,56.30
2023-02-11T16:48:33.847Z,56.30
2023-02-11T16:51:00.888Z,56.50
2023-02-11T16:53:27.685Z,56.60
2023-02-11T16:55:54.998Z,56.70
2023-02-11T16:58:21.750Z,56.80
2023-02-11T17:00:48.740Z,56.90
2023-02-11T17:03:23.129Z,57.00
2023-02-11T17:05:55.663Z,57.00
2023-02-11T17:08:22.680Z,57.00
2023-02-11T17:10:49.777Z,57.00
2023-02-11T17:13:16.892Z,57.00
2023-02-11T17:15:43.614Z,57.00
2023-02-11T17:18:14.221Z,57.10
2023-02-11T17:20:41.632Z,57.10
2023-02-11T17:23:08.701Z,57.80
2023-02-11T17:25:37.317Z,57.10
2023-02-11T17:28:08.925Z,57.30
2023-02-11T17:30:35.999Z,57.40
2023-02-11T17:33:02.915Z,57.40
2023-02-11T17:35:29.690Z,58.20
2023-02-11T17:37:58.189Z,57.50
2023-02-11T17:40:24.961Z,57.60
2023-02-11T17:42:51.691Z,57.80
2023-02-11T17:45:21.101Z,57.80
2023-02-11T17:47:49.453Z,57.70
2023-02-11T17:50:16.307Z,57.90
2023-02-11T17:52:43.194Z,57.80
2023-02-11T17:55:09.987Z,57.90
2023-02-11T17:57:37.037Z,58.00
2023-02-11T18:00:07.739Z,58.10
2023-02-11T18:02:39.508Z,58.00
2023-02-11T18:05:07.110Z,58.20
2023-02-11T18:07:34.001Z,58.10
2023-02-11T18:10:00.810Z,58.10
2023-02-11T18:12:27.661Z,58.10
2023-02-11T18:14:57.558Z,58.10
2023-02-11T18:17:25.700Z,58.20
2023-02-11T18:19:56.117Z,58.10
2023-02-11T18:22:24.425Z,58.10
2023-02-11T18:24:53.024Z,58.10
2023-02-11T18:27:23.534Z,58.20
2023-02-11T18:29:50.556Z,58.20
2023-02-11T18:32:17.292Z,58.20
2023-02-11T18:34:44.072Z,58.20
2023-02-11T18:37:13.220Z,58.20
2023-02-11T18:39:40.526Z,58.10
2023-02-11T18:42:07.331Z,58.10
2023-02-11T18:44:34.134Z,58.10
2023-02-11T18:47:01.124Z,58.10
2023-02-11T18:49:27.873Z,58.10
2023-02-11T18:51:54.914Z,58.10
2023-02-11T18:54:21.694Z,58.10
2023-02-11T18:56:48.444Z,58.00
2023-02-11T18:59:15.212Z,57.90
2023-02-11T19:01:46.644Z,57.90
2023-02-11T19:04:18.848Z,57.90
2023-02-11T19:06:49.410Z,57.90
2023-02-11T19:09:19.526Z,57.90
2023-02-11T19:11:54.152Z,58.00
2023-02-11T19:14:25.582Z,57.80
2023-02-11T19:16:55.584Z,58.80
2023-02-11T19:19:23.786Z,58.80
2023-02-11T19:21:50.853Z,58.10
2023-02-11T19:24:21.314Z,57.90
2023-02-11T19:26:49.651Z,57.60
2023-02-11T19:29:17.181Z,57.40
2023-02-11T19:31:44.819Z,57.30
2023-02-11T19:34:14.117Z,57.40
2023-02-11T19:36:41.489Z,58.00
2023-02-11T19:39:08.992Z,57.30
2023-02-11T19:41:36.536Z,57.10
2023-02-11T19:44:05.457Z,57.00
2023-02-11T19:46:36.317Z,57.00
2023-02-11T19:49:05.250Z,56.90
2023-02-11T19:51:38.966Z,56.90
2023-02-11T19:54:06.860Z,56.80
2023-02-11T19:56:34.481Z,56.70
2023-02-11T19:59:02.797Z,56.70
2023-02-11T20:01:29.621Z,56.70
2023-02-11T20:03:57.518Z,56.80
2023-02-11T20:06:26.669Z,56.70
2023-02-11T20:08:57.985Z,56.60
2023-02-11T20:11:25.863Z,56.70
2023-02-11T20:13:52.625Z,56.80
2023-02-11T20:16:21.943Z,56.80
2023-02-11T20:18:49.925Z,56.80
2023-02-11T20:21:20.332Z,56.70
2023-02-11T20:23:47.666Z,56.70
2023-02-11T20:26:20.782Z,56.90
2023-02-11T20:28:48.908Z,56.90
2023-02-11T20:31:16.910Z,56.70
2023-02-11T20:33:45.172Z,56.80
2023-02-11T20:36:18.876Z,56.70
2023-02-11T20:38:46.034Z,56.60
2023-02-11T20:41:15.560Z,56.60
2023-02-11T20:43:47.284Z,56.60
2023-02-11T20:46:16.616Z,56.60
2023-02-11T20:48:43.948Z,57.20
2023-02-11T20:51:14.932Z,56.50
2023-02-11T20:53:44.023Z,56.40
2023-02-11T20:56:12.582Z,56.50
2023-02-11T20:58:39.948Z,56.50
2023-02-11T21:01:22.662Z,56.50
2023-02-11T21:03:52.984Z,57.00
2023-02-11T21:06:20.669Z,56.50
2023-02-11T21:08:47.784Z,56.50
2023-02-11T21:11:15.150Z,56.60
2023-02-11T21:13:43.286Z,56.70
2023-02-11T21:16:14.726Z,56.80
2023-02-11T21:18:42.035Z,56.90
2023-02-11T21:21:09.259Z,56.80
2023-02-11T21:23:36.047Z,56.80
2023-02-11T21:26:02.793Z,56.90
2023-02-11T21:28:29.601Z,56.90
2023-02-11T21:30:57.556Z,57.00
2023-02-11T21:33:27.054Z,56.90
2023-02-11T21:35:58.262Z,57.00
2023-02-11T21:38:26.167Z,57.00
2023-02-11T21:40:53.689Z,57.00
2023-02-11T21:43:20.589Z,57.00
2023-02-11T21:45:50.179Z,56.80
2023-02-11T21:48:17.969Z,56.80
2023-02-11T21:50:47.112Z,56.90
2023-02-11T21:53:14.636Z,57.00
2023-02-11T21:55:42.597Z,57.20
2023-02-11T21:58:11.020Z,57.20
2023-02-11T22:00:38.495Z,57.40
2023-02-11T22:03:05.960Z,57.40
2023-02-11T22:05:32.904Z,57.40
2023-02-11T22:07:59.661Z,57.40
2023-02-11T22:10:26.412Z,57.50
2023-02-11T22:12:53.180Z,57.60
2023-02-11T22:15:19.966Z,57.60
2023-02-11T22:17:46.701Z,57.40
2023-02-11T22:20:13.529Z,57.40
2023-02-11T22:22:40.283Z,57.20
2023-02-11T22:25:07.454Z,57.20
2023-02-11T22:27:34.254Z,57.10
2023-02-11T22:30:01.025Z,57.00
2023-02-11T22:32:27.770Z,57.10
2023-02-11T22:34:54.493Z,57.10
2023-02-11T22:37:21.229Z,57.20
2023-02-11T22:39:48.021Z,57.10
2023-02-11T22:42:14.845Z,57.20
2023-02-11T22:44:41.579Z,57.30
2023-02-11T22:47:08.386Z,57.40
2023-02-11T22:49:35.641Z,57.60
2023-02-11T22:52:02.464Z,57.60
2023-02-11T22:54:29.182Z,57.60
2023-02-11T22:56:55.893Z,57.70
2023-02-11T22:59:22.598Z,57.80
2023-02-11T23:01:49.699Z,57.70
2023-02-11T23:04:19.172Z,57.70
2023-02-11T23:06:47.582Z,57.80
2023-02-11T23:09:14.450Z,57.60
2023-02-11T23:11:41.559Z,57.40
2023-02-11T23:14:10.069Z,57.30
2023-02-11T23:16:36.843Z,57.20
2023-02-11T23:19:07.821Z,57.30
2023-02-11T23:21:37.220Z,57.40
2023-02-11T23:24:15.640Z,57.40
2023-02-11T23:26:43.171Z,57.60
2023-02-11T23:29:10.500Z,57.60
2023-02-11T23:31:40.727Z,57.80
2023-02-11T23:34:08.356Z,57.90
2023-02-11T23:36:35.424Z,57.80
2023-02-11T23:39:02.572Z,57.80
2023-02-11T23:41:29.449Z,57.80
2023-02-11T23:43:57.802Z,57.80
2023-02-11T23:46:26.166Z,57.70
2023-02-11T23:48:53.295Z,57.60
2023-02-11T23:51:20.599Z,58.40
2023-02-11T23:53:49.170Z,57.50
2023-02-11T23:56:22.984Z,57.50
2023-02-11T23:58:51.785Z,57.50
